Blissfield, Michigan
Current Conditions -  °F | °C
As of 6:53 PM on Friday 28 Nov 2014 (Local Time) from KADG Reporting Station
Overcast Overcast  
Wind Chill: 17°   Ceiling: 10000
Heat Index: 26°   Visibility: 10mi
Dew Point: 21°   Wind: 9mph
Humidity: 81%   Direction: 170°S
Pressure: 30.13"   Gusts: NA
Location:  41.83°N, 83.86°W
Report Text: KADG 282353Z AUTO 17008KT 10SM OVC100 M03/M06 A3013 RMK AO2 SLP218 60000 T10331061 11028 21044 56017
Loading
Personal Weather Stations






























Interactive Weather Map New forecast layout! Learn more

10-Day Weather Forecast

Advertisements
Track Severe Weather on mobile